Overseas Houston — WWAA — position and weather

sailwx.info

Track history (hours):
 
Tides and Currents Weather Stations Pressure Air Temp Water Temp Dewpoint Dewpoint Depression Visibility Wind Speed Wind Dir Waves Ship Positions

Overseas Houston

Owner: ASC Leasing I, Inc., Philadelphia, PA. More information available from US FCC via Universal Licensing System and Coast Guard Vessel Documentation Center.

Last reported at 2015-Aug-27 18:27 UTC. Time now 2015-Aug-30 03:37 UTC.
Position N 24°50' W 080°27'.

Type: Tanker. MMSI: 367109000.

Date/timePositionNaut miles runAvg speedWind from/ knotsBaromVisibWave heightAir tempDewpointWater temp
2015-Aug-27 18:27N 24°50' W 080°27'1213.1
2015-Aug-27 17:33N 24°57' W 080°17'1312.9
2015-Aug-27 16:34N 25°07' W 080°08'1312.6
2015-Aug-27 15:34N 25°19' W 080°02'1312.6
2015-Aug-27 14:34N 25°31' W 080°00'1313.3
2015-Aug-27 13:34N 25°45' W 080°01'1312.6
2015-Aug-27 12:34N 25°57' W 080°01'1010.0
2015-Aug-27 11:33N 26°06' W 080°06'1 0.9
2015-Aug-27 10:33N 26°05' W 080°07'0 0.0
2015-Aug-27 09:33N 26°05' W 080°07'0 0.0
2015-Aug-27 08:33N 26°05' W 080°07'0 0.0
2015-Aug-27 07:33N 26°05' W 080°07'0 0.0
2015-Aug-27 06:33N 26°05' W 080°07'0 0.0
2015-Aug-27 05:33N 26°05' W 080°07'0 0.0
2015-Aug-27 04:33N 26°05' W 080°07'0 0.0
2015-Aug-27 03:33N 26°05' W 080°07'0 0.0
2015-Aug-27 02:33N 26°05' W 080°07'0 0.0
2015-Aug-27 01:33N 26°05' W 080°07'0 0.0
2015-Aug-27 00:33N 26°05' W 080°07'0 0.0
2015-Aug-26 23:33N 26°05' W 080°07'0 0.0
2015-Aug-26 22:24N 26°05' W 080°07'0 0.0
2015-Aug-26 21:24N 26°05' W 080°07'0 0.0
2015-Aug-26 20:27N 26°05' W 080°07'0 0.0
2015-Aug-26 19:27N 26°05' W 080°07'0 0.0
2015-Aug-26 18:27N 26°05' W 080°07'0 0.0
2015-Aug-26 17:27N 26°05' W 080°07'0 0.0
2015-Aug-26 16:27N 26°05' W 080°07'0 0.0
2015-Aug-26 15:27N 26°05' W 080°07'0 0.0
2015-Aug-26 14:30N 26°05' W 080°07'0 0.0
2015-Aug-26 13:30N 26°05' W 080°07'0 0.0
2015-Aug-26 12:30N 26°05' W 080°07'0 0.0
2015-Aug-26 11:27N 26°05' W 080°07'0 0.0
2015-Aug-26 10:30N 26°05' W 080°07'0 0.0
2015-Aug-26 09:33N 26°05' W 080°07'0 0.0
2015-Aug-26 08:33N 26°05' W 080°07'0 0.0
2015-Aug-26 07:33N 26°05' W 080°07'0 0.0
2015-Aug-26 06:33N 26°05' W 080°07'0 0.0
2015-Aug-26 05:33N 26°05' W 080°07'0 0.0
2015-Aug-26 04:33N 26°05' W 080°07'0 0.0
2015-Aug-26 03:33N 26°05' W 080°07'0 0.0
2015-Aug-26 02:33N 26°05' W 080°07'0 0.0
2015-Aug-26 01:32N 26°05' W 080°07'0 0.0
2015-Aug-26 00:32N 26°05' W 080°07'0 0.0
2015-Aug-25 23:32N 26°05' W 080°07'0 0.0
2015-Aug-25 22:32N 26°05' W 080°07'0 0.0
2015-Aug-25 21:23N 26°05' W 080°07'0 0.0
2015-Aug-25 20:23N 26°05' W 080°07'0 0.0
2015-Aug-25 19:23N 26°05' W 080°07'0 0.0
2015-Aug-25 18:26N 26°05' W 080°07'0 0.0
2015-Aug-25 17:26N 26°05' W 080°07'0 0.0
2015-Aug-25 16:26N 26°05' W 080°07'0 0.0
2015-Aug-25 15:26N 26°05' W 080°07'0 0.0
2015-Aug-25 14:23N 26°05' W 080°07'0 0.0
2015-Aug-25 13:29N 26°05' W 080°07'0 0.0
2015-Aug-25 12:26N 26°05' W 080°07'3 3.8
2015-Aug-25 11:33N 26°06' W 080°04'1 1.3
2015-Aug-25 10:25N 26°07' W 080°04'0 0.0
2015-Aug-25 09:25N 26°07' W 080°04'0 0.0
2015-Aug-25 08:31N 26°07' W 080°04'0 0.0
2015-Aug-25 07:31N 26°07' W 080°04'0 0.0
2015-Aug-25 06:33N 26°07' W 080°04'0 0.1
2015-Aug-25 05:33N 26°07' W 080°04'0 0.1
2015-Aug-25 04:33N 26°07' W 080°04'0 0.1
2015-Aug-25 03:33N 26°07' W 080°04'0 0.0
2015-Aug-25 02:33N 26°07' W 080°04'0 0.1
2015-Aug-25 01:33N 26°07' W 080°04'0 0.0
2015-Aug-25 00:33N 26°07' W 080°04'0 0.1
2015-Aug-24 23:33N 26°07' W 080°04'0 0.1
2015-Aug-24 22:33N 26°07' W 080°04'7 7.4
2015-Aug-24 21:33N 26°02' W 079°59'1615.7
2015-Aug-24 20:33N 25°46' W 079°57'1716.7
2015-Aug-24 19:33N 25°29' W 079°57'59412.3
2015-Aug-22 19:12N 29°49' W 090°00'7 9.4
2015-Aug-22 18:26N 29°55' W 089°55'11 0.3
2015-Aug-20 22:33N 29°55' W 090°08'  
2015-Aug-18 16:20N 25°14' W 080°04'1012.9
2015-Aug-18 15:32N 25°24' W 080°00'1111.8
2015-Aug-18 14:33N 25°36' W 080°00'1111.3
2015-Aug-18 13:33N 25°47' W 080°01'1111.1
2015-Aug-18 12:33N 25°58' W 080°00'9 9.5
2015-Aug-18 11:33N 26°06' W 080°07'1 0.7
2015-Aug-18 10:31N 26°06' W 080°07'0 0.0
2015-Aug-18 09:31N 26°06' W 080°07'0 0.0
2015-Aug-18 08:31N 26°06' W 080°07'0 0.0
2015-Aug-18 07:22N 26°06' W 080°07'0 0.0
2015-Aug-18 06:22N 26°06' W 080°07'0 0.0
2015-Aug-18 04:25N 26°06' W 080°07'0 0.0
2015-Aug-18 04:10N 26°06' W 080°07'0 0.1
2015-Aug-18 04:07N 26°06' W 080°07'0 0.0
2015-Aug-18 03:25N 26°06' W 080°07'0 0.0
2015-Aug-18 02:25N 26°06' W 080°07'0 0.0
2015-Aug-18 01:25N 26°06' W 080°07'0 0.0
2015-Aug-18 00:25N 26°06' W 080°07'0 0.0
2015-Aug-17 23:28N 26°06' W 080°07'0 0.0
2015-Aug-17 22:28N 26°06' W 080°07'0 0.0
2015-Aug-17 21:28N 26°06' W 080°07'0 0.0
2015-Aug-17 20:28N 26°06' W 080°07'0 0.0
2015-Aug-17 19:28N 26°06' W 080°07'  
Track history (hours):
 
Tides and Currents Weather Stations Pressure Air Temp Water Temp Dewpoint Dewpoint Depression Visibility Wind Speed Wind Dir Waves Ship Positions

Overseas Houston

Owner: ASC Leasing I, Inc., Philadelphia, PA. More information available from US FCC via Universal Licensing System and Coast Guard Vessel Documentation Center.

Last reported at 2015-Aug-27 18:27 UTC. Time now 2015-Aug-30 03:37 UTC.
Position N 24°50' W 080°27'.

Type: Tanker. MMSI: 367109000.

Date/timePositionNaut miles runAvg speedWind from/ knotsBaromVisibWave heightAir tempDewpointWater temp
2015-Aug-27 18:27N 24°50' W 080°27'1213.1
2015-Aug-27 17:33N 24°57' W 080°17'1312.9
2015-Aug-27 16:34N 25°07' W 080°08'1312.6
2015-Aug-27 15:34N 25°19' W 080°02'1312.6
2015-Aug-27 14:34N 25°31' W 080°00'1313.3
2015-Aug-27 13:34N 25°45' W 080°01'1312.6
2015-Aug-27 12:34N 25°57' W 080°01'1010.0
2015-Aug-27 11:33N 26°06' W 080°06'1 0.9
2015-Aug-27 10:33N 26°05' W 080°07'0 0.0
2015-Aug-27 09:33N 26°05' W 080°07'0 0.0
2015-Aug-27 08:33N 26°05' W 080°07'0 0.0
2015-Aug-27 07:33N 26°05' W 080°07'0 0.0
2015-Aug-27 06:33N 26°05' W 080°07'0 0.0
2015-Aug-27 05:33N 26°05' W 080°07'0 0.0
2015-Aug-27 04:33N 26°05' W 080°07'0 0.0
2015-Aug-27 03:33N 26°05' W 080°07'0 0.0
2015-Aug-27 02:33N 26°05' W 080°07'0 0.0
2015-Aug-27 01:33N 26°05' W 080°07'0 0.0
2015-Aug-27 00:33N 26°05' W 080°07'0 0.0
2015-Aug-26 23:33N 26°05' W 080°07'0 0.0
2015-Aug-26 22:24N 26°05' W 080°07'0 0.0
2015-Aug-26 21:24N 26°05' W 080°07'0 0.0
2015-Aug-26 20:27N 26°05' W 080°07'0 0.0
2015-Aug-26 19:27N 26°05' W 080°07'0 0.0
2015-Aug-26 18:27N 26°05' W 080°07'0 0.0
2015-Aug-26 17:27N 26°05' W 080°07'0 0.0
2015-Aug-26 16:27N 26°05' W 080°07'0 0.0
2015-Aug-26 15:27N 26°05' W 080°07'0 0.0
2015-Aug-26 14:30N 26°05' W 080°07'0 0.0
2015-Aug-26 13:30N 26°05' W 080°07'0 0.0
2015-Aug-26 12:30N 26°05' W 080°07'0 0.0
2015-Aug-26 11:27N 26°05' W 080°07'0 0.0
2015-Aug-26 10:30N 26°05' W 080°07'0 0.0
2015-Aug-26 09:33N 26°05' W 080°07'0 0.0
2015-Aug-26 08:33N 26°05' W 080°07'0 0.0
2015-Aug-26 07:33N 26°05' W 080°07'0 0.0
2015-Aug-26 06:33N 26°05' W 080°07'0 0.0
2015-Aug-26 05:33N 26°05' W 080°07'0 0.0
2015-Aug-26 04:33N 26°05' W 080°07'0 0.0
2015-Aug-26 03:33N 26°05' W 080°07'0 0.0
2015-Aug-26 02:33N 26°05' W 080°07'0 0.0
2015-Aug-26 01:32N 26°05' W 080°07'0 0.0
2015-Aug-26 00:32N 26°05' W 080°07'0 0.0
2015-Aug-25 23:32N 26°05' W 080°07'0 0.0
2015-Aug-25 22:32N 26°05' W 080°07'0 0.0
2015-Aug-25 21:23N 26°05' W 080°07'0 0.0
2015-Aug-25 20:23N 26°05' W 080°07'0 0.0
2015-Aug-25 19:23N 26°05' W 080°07'0 0.0
2015-Aug-25 18:26N 26°05' W 080°07'0 0.0
2015-Aug-25 17:26N 26°05' W 080°07'0 0.0
2015-Aug-25 16:26N 26°05' W 080°07'0 0.0
2015-Aug-25 15:26N 26°05' W 080°07'0 0.0
2015-Aug-25 14:23N 26°05' W 080°07'0 0.0
2015-Aug-25 13:29N 26°05' W 080°07'0 0.0
2015-Aug-25 12:26N 26°05' W 080°07'3 3.8
2015-Aug-25 11:33N 26°06' W 080°04'1 1.3
2015-Aug-25 10:25N 26°07' W 080°04'0 0.0
2015-Aug-25 09:25N 26°07' W 080°04'0 0.0
2015-Aug-25 08:31N 26°07' W 080°04'0 0.0
2015-Aug-25 07:31N 26°07' W 080°04'0 0.0
2015-Aug-25 06:33N 26°07' W 080°04'0 0.1
2015-Aug-25 05:33N 26°07' W 080°04'0 0.1
2015-Aug-25 04:33N 26°07' W 080°04'0 0.1
2015-Aug-25 03:33N 26°07' W 080°04'0 0.0
2015-Aug-25 02:33N 26°07' W 080°04'0 0.1
2015-Aug-25 01:33N 26°07' W 080°04'0 0.0
2015-Aug-25 00:33N 26°07' W 080°04'0 0.1
2015-Aug-24 23:33N 26°07' W 080°04'0 0.1
2015-Aug-24 22:33N 26°07' W 080°04'7 7.4
2015-Aug-24 21:33N 26°02' W 079°59'1615.7
2015-Aug-24 20:33N 25°46' W 079°57'1716.7
2015-Aug-24 19:33N 25°29' W 079°57'59412.3
2015-Aug-22 19:12N 29°49' W 090°00'7 9.4
2015-Aug-22 18:26N 29°55' W 089°55'11 0.3
2015-Aug-20 22:33N 29°55' W 090°08'  
2015-Aug-18 16:20N 25°14' W 080°04'1012.9
2015-Aug-18 15:32N 25°24' W 080°00'1111.8
2015-Aug-18 14:33N 25°36' W 080°00'1111.3
2015-Aug-18 13:33N 25°47' W 080°01'1111.1
2015-Aug-18 12:33N 25°58' W 080°00'9 9.5
2015-Aug-18 11:33N 26°06' W 080°07'1 0.7
2015-Aug-18 10:31N 26°06' W 080°07'0 0.0
2015-Aug-18 09:31N 26°06' W 080°07'0 0.0
2015-Aug-18 08:31N 26°06' W 080°07'0 0.0
2015-Aug-18 07:22N 26°06' W 080°07'0 0.0
2015-Aug-18 06:22N 26°06' W 080°07'0 0.0
2015-Aug-18 04:25N 26°06' W 080°07'0 0.0
2015-Aug-18 04:10N 26°06' W 080°07'0 0.1
2015-Aug-18 04:07N 26°06' W 080°07'0 0.0
2015-Aug-18 03:25N 26°06' W 080°07'0 0.0
2015-Aug-18 02:25N 26°06' W 080°07'0 0.0
2015-Aug-18 01:25N 26°06' W 080°07'0 0.0
2015-Aug-18 00:25N 26°06' W 080°07'0 0.0
2015-Aug-17 23:28N 26°06' W 080°07'0 0.0
2015-Aug-17 22:28N 26°06' W 080°07'0 0.0
2015-Aug-17 21:28N 26°06' W 080°07'0 0.0
2015-Aug-17 20:28N 26°06' W 080°07'0 0.0
2015-Aug-17 19:28N 26°06' W 080°07'  

Dump ship's entire track history